sensor_id;sensor_type;location;lat;lon;timestamp;temperature;humidity
18658;DHT22;9458;50.942;5.074;2023-04-23T00:01:40;9.20;99.90
18658;DHT22;9458;50.942;5.074;2023-04-23T00:04:15;9.20;99.90
18658;DHT22;9458;50.942;5.074;2023-04-23T00:06:51;9.20;99.90
18658;DHT22;9458;50.942;5.074;2023-04-23T00:09:22;9.10;99.90
18658;DHT22;9458;50.942;5.074;2023-04-23T00:11:53;9.10;99.90
18658;DHT22;9458;50.942;5.074;2023-04-23T00:14:28;9.10;99.90
18658;DHT22;9458;50.942;5.074;2023-04-23T00:16:59;9.20;99.90
18658;DHT22;9458;50.942;5.074;2023-04-23T00:19:27;9.20;99.90
18658;DHT22;9458;50.942;5.074;2023-04-23T00:21:56;9.20;99.90
18658;DHT22;9458;50.942;5.074;2023-04-23T00:24:25;9.10;99.90
18658;DHT22;9458;50.942;5.074;2023-04-23T00:26:55;9.10;99.90
18658;DHT22;9458;50.942;5.074;2023-04-23T00:29:32;9.10;99.90
18658;DHT22;9458;50.942;5.074;2023-04-23T00:32:10;9.00;99.90
18658;DHT22;9458;50.942;5.074;2023-04-23T00:34:39;9.00;99.90
18658;DHT22;9458;50.942;5.074;2023-04-23T00:37:07;9.00;99.90
18658;DHT22;9458;50.942;5.074;2023-04-23T00:39:38;8.80;99.90
18658;DHT22;9458;50.942;5.074;2023-04-23T00:42:11;8.70;99.90
18658;DHT22;9458;50.942;5.074;2023-04-23T00:44:39;8.70;99.90
18658;DHT22;9458;50.942;5.074;2023-04-23T00:47:07;8.80;99.90
18658;DHT22;9458;50.942;5.074;2023-04-23T00:49:43;8.80;99.90
18658;DHT22;9458;50.942;5.074;2023-04-23T00:52:11;8.70;99.90
18658;DHT22;9458;50.942;5.074;2023-04-23T00:54:41;8.70;99.90
18658;DHT22;9458;50.942;5.074;2023-04-23T00:57:09;8.80;99.90
18658;DHT22;9458;50.942;5.074;2023-04-23T00:59:37;8.80;99.90
18658;DHT22;9458;50.942;5.074;2023-04-23T01:02:04;8.80;99.90
18658;DHT22;9458;50.942;5.074;2023-04-23T01:04:35;8.90;99.90
18658;DHT22;9458;50.942;5.074;2023-04-23T01:07:03;8.90;99.90
18658;DHT22;9458;50.942;5.074;2023-04-23T01:09:33;8.90;99.90
18658;DHT22;9458;50.942;5.074;2023-04-23T01:12:05;8.80;99.90
18658;DHT22;9458;50.942;5.074;2023-04-23T01:14:36;8.80;99.90
18658;DHT22;9458;50.942;5.074;2023-04-23T01:17:08;8.90;99.90
18658;DHT22;9458;50.942;5.074;2023-04-23T01:19:47;8.90;99.90
18658;DHT22;9458;50.942;5.074;2023-04-23T01:22:24;8.90;99.90
18658;DHT22;9458;50.942;5.074;2023-04-23T01:24:51;8.90;99.90
18658;DHT22;9458;50.942;5.074;2023-04-23T01:27:20;8.90;99.90
18658;DHT22;9458;50.942;5.074;2023-04-23T01:29:51;9.00;99.90
18658;DHT22;9458;50.942;5.074;2023-04-23T01:32:20;9.00;99.90
18658;DHT22;9458;50.942;5.074;2023-04-23T01:34:50;9.00;99.90
18658;DHT22;9458;50.942;5.074;2023-04-23T01:37:20;9.10;99.90
18658;DHT22;9458;50.942;5.074;2023-04-23T01:39:50;9.10;99.90
18658;DHT22;9458;50.942;5.074;2023-04-23T01:42:17;9.20;99.90
18658;DHT22;9458;50.942;5.074;2023-04-23T01:44:46;9.20;99.90
18658;DHT22;9458;50.942;5.074;2023-04-23T01:47:17;9.20;99.90
18658;DHT22;9458;50.942;5.074;2023-04-23T01:49:47;9.30;99.90
18658;DHT22;9458;50.942;5.074;2023-04-23T01:52:14;9.30;99.90
18658;DHT22;9458;50.942;5.074;2023-04-23T01:54:43;9.30;99.90
18658;DHT22;9458;50.942;5.074;2023-04-23T01:57:11;9.20;99.90
18658;DHT22;9458;50.942;5.074;2023-04-23T01:59:41;9.20;99.90
18658;DHT22;9458;50.942;5.074;2023-04-23T02:02:09;9.30;99.90
18658;DHT22;9458;50.942;5.074;2023-04-23T02:04:46;9.30;99.90
18658;DHT22;9458;50.942;5.074;2023-04-23T02:07:14;9.30;99.90
18658;DHT22;9458;50.942;5.074;2023-04-23T02:09:43;9.40;99.90
18658;DHT22;9458;50.942;5.074;2023-04-23T02:12:12;9.40;99.90
18658;DHT22;9458;50.942;5.074;2023-04-23T02:14:39;9.40;99.90
18658;DHT22;9458;50.942;5.074;2023-04-23T02:17:10;9.50;99.90
18658;DHT22;9458;50.942;5.074;2023-04-23T02:19:38;9.50;99.90
18658;DHT22;9458;50.942;5.074;2023-04-23T02:22:06;9.50;99.90
18658;DHT22;9458;50.942;5.074;2023-04-23T02:24:35;9.50;99.90
18658;DHT22;9458;50.942;5.074;2023-04-23T02:27:07;9.50;99.90
18658;DHT22;9458;50.942;5.074;2023-04-23T02:29:37;9.50;99.90
18658;DHT22;9458;50.942;5.074;2023-04-23T02:32:06;9.50;99.90
18658;DHT22;9458;50.942;5.074;2023-04-23T02:34:35;9.60;99.90
18658;DHT22;9458;50.942;5.074;2023-04-23T02:37:03;9.70;99.90
18658;DHT22;9458;50.942;5.074;2023-04-23T02:39:31;9.70;99.90
18658;DHT22;9458;50.942;5.074;2023-04-23T02:41:59;9.70;99.90
18658;DHT22;9458;50.942;5.074;2023-04-23T02:44:27;9.70;99.90
18658;DHT22;9458;50.942;5.074;2023-04-23T02:47:00;9.90;99.90
18658;DHT22;9458;50.942;5.074;2023-04-23T02:49:27;10.00;99.90
18658;DHT22;9458;50.942;5.074;2023-04-23T02:51:56;10.00;99.90
18658;DHT22;9458;50.942;5.074;2023-04-23T02:54:26;10.10;99.90
18658;DHT22;9458;50.942;5.074;2023-04-23T02:56:54;10.10;99.90
18658;DHT22;9458;50.942;5.074;2023-04-23T02:59:24;10.10;99.90
18658;DHT22;9458;50.942;5.074;2023-04-23T03:01:51;10.00;99.90
18658;DHT22;9458;50.942;5.074;2023-04-23T03:04:22;10.00;99.90
18658;DHT22;9458;50.942;5.074;2023-04-23T03:06:52;10.00;99.90
18658;DHT22;9458;50.942;5.074;2023-04-23T03:09:25;9.90;99.90
18658;DHT22;9458;50.942;5.074;2023-04-23T03:11:54;9.80;99.90
18658;DHT22;9458;50.942;5.074;2023-04-23T03:14:22;9.80;99.90
18658;DHT22;9458;50.942;5.074;2023-04-23T03:16:50;9.80;99.90
18658;DHT22;9458;50.942;5.074;2023-04-23T03:19:17;9.70;99.90
18658;DHT22;9458;50.942;5.074;2023-04-23T03:21:46;9.80;99.90
18658;DHT22;9458;50.942;5.074;2023-04-23T03:24:15;9.80;99.90
18658;DHT22;9458;50.942;5.074;2023-04-23T03:26:42;9.70;99.90
18658;DHT22;9458;50.942;5.074;2023-04-23T03:29:10;9.60;99.90
18658;DHT22;9458;50.942;5.074;2023-04-23T03:31:37;9.60;99.90
18658;DHT22;9458;50.942;5.074;2023-04-23T03:34:08;9.60;99.90
18658;DHT22;9458;50.942;5.074;2023-04-23T03:36:37;9.50;99.90
18658;DHT22;9458;50.942;5.074;2023-04-23T03:39:10;9.40;99.90
18658;DHT22;9458;50.942;5.074;2023-04-23T03:41:40;9.40;99.90
18658;DHT22;9458;50.942;5.074;2023-04-23T03:44:09;9.30;99.90
18658;DHT22;9458;50.942;5.074;2023-04-23T03:46:41;9.40;99.90
18658;DHT22;9458;50.942;5.074;2023-04-23T03:49:11;9.50;99.90
18658;DHT22;9458;50.942;5.074;2023-04-23T03:51:39;9.50;99.90
18658;DHT22;9458;50.942;5.074;2023-04-23T03:54:10;9.50;99.90
18658;DHT22;9458;50.942;5.074;2023-04-23T03:56:42;9.50;99.90
18658;DHT22;9458;50.942;5.074;2023-04-23T03:59:15;9.40;99.90
18658;DHT22;9458;50.942;5.074;2023-04-23T04:01:45;9.40;99.90
18658;DHT22;9458;50.942;5.074;2023-04-23T04:04:15;9.40;99.90
18658;DHT22;9458;50.942;5.074;2023-04-23T04:06:48;9.40;99.90
18658;DHT22;9458;50.942;5.074;2023-04-23T04:09:19;9.40;99.90
18658;DHT22;9458;50.942;5.074;2023-04-23T04:11:48;9.40;99.90
18658;DHT22;9458;50.942;5.074;2023-04-23T04:14:17;9.30;99.90
18658;DHT22;9458;50.942;5.074;2023-04-23T04:16:46;9.40;99.90
18658;DHT22;9458;50.942;5.074;2023-04-23T04:19:13;9.40;99.90
18658;DHT22;9458;50.942;5.074;2023-04-23T04:21:42;9.30;99.90
18658;DHT22;9458;50.942;5.074;2023-04-23T04:24:10;9.30;99.90
18658;DHT22;9458;50.942;5.074;2023-04-23T04:26:40;9.20;99.90
18658;DHT22;9458;50.942;5.074;2023-04-23T04:29:10;9.20;99.90
18658;DHT22;9458;50.942;5.074;2023-04-23T04:31:40;9.20;99.90
18658;DHT22;9458;50.942;5.074;2023-04-23T04:34:07;9.20;99.90
18658;DHT22;9458;50.942;5.074;2023-04-23T04:36:35;9.20;99.90
18658;DHT22;9458;50.942;5.074;2023-04-23T04:39:03;9.20;99.90
18658;DHT22;9458;50.942;5.074;2023-04-23T04:41:32;9.20;99.90
18658;DHT22;9458;50.942;5.074;2023-04-23T04:44:03;9.20;99.90
18658;DHT22;9458;50.942;5.074;2023-04-23T04:46:33;9.20;99.90
18658;DHT22;9458;50.942;5.074;2023-04-23T04:49:09;9.20;99.90
18658;DHT22;9458;50.942;5.074;2023-04-23T04:51:38;9.20;99.90
18658;DHT22;9458;50.942;5.074;2023-04-23T04:54:07;9.40;99.90
18658;DHT22;9458;50.942;5.074;2023-04-23T04:56:37;9.50;99.90
18658;DHT22;9458;50.942;5.074;2023-04-23T04:59:06;9.60;99.90
18658;DHT22;9458;50.942;5.074;2023-04-23T05:01:41;9.60;99.90
18658;DHT22;9458;50.942;5.074;2023-04-23T05:04:09;9.60;99.90
18658;DHT22;9458;50.942;5.074;2023-04-23T05:06:40;9.50;99.90
18658;DHT22;9458;50.942;5.074;2023-04-23T05:09:10;9.50;99.90
18658;DHT22;9458;50.942;5.074;2023-04-23T05:11:38;9.40;99.90
18658;DHT22;9458;50.942;5.074;2023-04-23T05:14:09;9.30;99.90
18658;DHT22;9458;50.942;5.074;2023-04-23T05:16:41;9.40;99.90
18658;DHT22;9458;50.942;5.074;2023-04-23T05:19:12;9.40;99.90
18658;DHT22;9458;50.942;5.074;2023-04-23T05:21:42;9.50;99.90
18658;DHT22;9458;50.942;5.074;2023-04-23T05:24:09;9.60;99.90
18658;DHT22;9458;50.942;5.074;2023-04-23T05:26:38;9.60;99.90
18658;DHT22;9458;50.942;5.074;2023-04-23T05:29:23;10.00;99.90
18658;DHT22;9458;50.942;5.074;2023-04-23T05:31:54;10.70;99.90
18658;DHT22;9458;50.942;5.074;2023-04-23T05:34:26;11.50;99.90
18658;DHT22;9458;50.942;5.074;2023-04-23T05:36:55;12.20;99.90
18658;DHT22;9458;50.942;5.074;2023-04-23T05:39:23;12.70;99.90
18658;DHT22;9458;50.942;5.074;2023-04-23T05:41:51;13.10;99.90
18658;DHT22;9458;50.942;5.074;2023-04-23T05:44:23;13.50;99.90
18658;DHT22;9458;50.942;5.074;2023-04-23T05:46:51;13.90;99.90
18658;DHT22;9458;50.942;5.074;2023-04-23T05:49:20;14.20;99.90
18658;DHT22;9458;50.942;5.074;2023-04-23T05:51:49;14.60;99.90
18658;DHT22;9458;50.942;5.074;2023-04-23T05:54:18;14.70;99.90
18658;DHT22;9458;50.942;5.074;2023-04-23T05:56:45;15.00;99.90
18658;DHT22;9458;50.942;5.074;2023-04-23T05:59:16;15.50;99.90
18658;DHT22;9458;50.942;5.074;2023-04-23T06:01:47;15.80;99.90
18658;DHT22;9458;50.942;5.074;2023-04-23T06:04:25;16.50;99.90
18658;DHT22;9458;50.942;5.074;2023-04-23T06:06:58;16.90;99.90
18658;DHT22;9458;50.942;5.074;2023-04-23T06:09:26;17.20;99.90
18658;DHT22;9458;50.942;5.074;2023-04-23T06:12:04;18.20;99.90
18658;DHT22;9458;50.942;5.074;2023-04-23T06:14:33;18.70;99.90
18658;DHT22;9458;50.942;5.074;2023-04-23T06:17:04;19.20;99.90
18658;DHT22;9458;50.942;5.074;2023-04-23T06:19:32;19.50;99.90
18658;DHT22;9458;50.942;5.074;2023-04-23T06:22:00;20.00;99.90
18658;DHT22;9458;50.942;5.074;2023-04-23T06:24:31;20.70;99.90
18658;DHT22;9458;50.942;5.074;2023-04-23T06:27:02;20.30;99.90
18658;DHT22;9458;50.942;5.074;2023-04-23T06:29:30;20.50;99.90
18658;DHT22;9458;50.942;5.074;2023-04-23T06:32:01;19.90;99.90
18658;DHT22;9458;50.942;5.074;2023-04-23T06:34:31;20.30;99.90
18658;DHT22;9458;50.942;5.074;2023-04-23T06:37:03;21.70;99.90
18658;DHT22;9458;50.942;5.074;2023-04-23T06:39:34;21.60;99.90
18658;DHT22;9458;50.942;5.074;2023-04-23T06:42:02;21.90;99.90
18658;DHT22;9458;50.942;5.074;2023-04-23T06:44:29;22.90;99.90
18658;DHT22;9458;50.942;5.074;2023-04-23T06:46:58;23.20;99.90
18658;DHT22;9458;50.942;5.074;2023-04-23T06:49:25;23.10;99.90
18658;DHT22;9458;50.942;5.074;2023-04-23T06:51:55;23.20;99.90
18658;DHT22;9458;50.942;5.074;2023-04-23T06:54:24;24.70;99.90
18658;DHT22;9458;50.942;5.074;2023-04-23T06:56:52;24.50;99.90
18658;DHT22;9458;50.942;5.074;2023-04-23T06:59:22;24.70;99.90
18658;DHT22;9458;50.942;5.074;2023-04-23T07:01:52;24.90;99.90
18658;DHT22;9458;50.942;5.074;2023-04-23T07:04:23;24.80;99.90
18658;DHT22;9458;50.942;5.074;2023-04-23T07:07:05;25.50;99.90
18658;DHT22;9458;50.942;5.074;2023-04-23T07:09:32;24.90;99.90
18658;DHT22;9458;50.942;5.074;2023-04-23T07:12:01;24.90;99.90
18658;DHT22;9458;50.942;5.074;2023-04-23T07:14:28;25.90;99.90
18658;DHT22;9458;50.942;5.074;2023-04-23T07:16:58;25.80;99.90
18658;DHT22;9458;50.942;5.074;2023-04-23T07:19:27;27.00;99.90
18658;DHT22;9458;50.942;5.074;2023-04-23T07:21:57;27.80;98.70
18658;DHT22;9458;50.942;5.074;2023-04-23T07:24:27;29.00;97.10
18658;DHT22;9458;50.942;5.074;2023-04-23T07:26:55;29.10;94.20
18658;DHT22;9458;50.942;5.074;2023-04-23T07:29:25;29.00;94.50
18658;DHT22;9458;50.942;5.074;2023-04-23T07:31:54;28.70;93.80
18658;DHT22;9458;50.942;5.074;2023-04-23T07:34:23;28.80;94.80
18658;DHT22;9458;50.942;5.074;2023-04-23T07:36:50;29.30;92.50
18658;DHT22;9458;50.942;5.074;2023-04-23T07:39:19;29.30;91.60
18658;DHT22;9458;50.942;5.074;2023-04-23T07:41:48;29.40;92.40
18658;DHT22;9458;50.942;5.074;2023-04-23T07:44:16;30.30;91.10
18658;DHT22;9458;50.942;5.074;2023-04-23T07:46:44;31.10;90.70
18658;DHT22;9458;50.942;5.074;2023-04-23T07:49:12;32.60;85.40
18658;DHT22;9458;50.942;5.074;2023-04-23T07:51:41;32.70;84.30
18658;DHT22;9458;50.942;5.074;2023-04-23T07:54:11;33.30;80.40
18658;DHT22;9458;50.942;5.074;2023-04-23T07:56:39;32.70;79.30
18658;DHT22;9458;50.942;5.074;2023-04-23T07:59:10;33.70;78.10
18658;DHT22;9458;50.942;5.074;2023-04-23T08:01:39;33.90;76.90
18658;DHT22;9458;50.942;5.074;2023-04-23T08:04:06;34.20;74.80
18658;DHT22;9458;50.942;5.074;2023-04-23T08:06:34;33.70;73.10
18658;DHT22;9458;50.942;5.074;2023-04-23T08:09:01;32.00;76.60
18658;DHT22;9458;50.942;5.074;2023-04-23T08:11:31;30.80;78.50
18658;DHT22;9458;50.942;5.074;2023-04-23T08:14:00;31.90;76.20
18658;DHT22;9458;50.942;5.074;2023-04-23T08:16:29;32.90;73.80
18658;DHT22;9458;50.942;5.074;2023-04-23T08:18:58;32.80;75.90
18658;DHT22;9458;50.942;5.074;2023-04-23T08:21:25;33.50;73.40
18658;DHT22;9458;50.942;5.074;2023-04-23T08:23:53;33.80;72.10
18658;DHT22;9458;50.942;5.074;2023-04-23T08:26:21;33.70;70.60
18658;DHT22;9458;50.942;5.074;2023-04-23T08:28:49;32.70;71.70
18658;DHT22;9458;50.942;5.074;2023-04-23T08:31:20;33.60;70.90
18658;DHT22;9458;50.942;5.074;2023-04-23T08:33:49;32.40;70.50
18658;DHT22;9458;50.942;5.074;2023-04-23T08:36:16;29.70;76.30
18658;DHT22;9458;50.942;5.074;2023-04-23T08:38:45;30.60;75.90
18658;DHT22;9458;50.942;5.074;2023-04-23T08:41:13;31.20;76.30
18658;DHT22;9458;50.942;5.074;2023-04-23T08:43:48;30.10;75.90
18658;DHT22;9458;50.942;5.074;2023-04-23T08:46:18;28.90;77.90
18658;DHT22;9458;50.942;5.074;2023-04-23T08:48:48;28.40;80.70
18658;DHT22;9458;50.942;5.074;2023-04-23T08:51:21;27.90;81.10
18658;DHT22;9458;50.942;5.074;2023-04-23T08:53:57;26.70;82.60
18658;DHT22;9458;50.942;5.074;2023-04-23T08:56:27;25.20;82.70
18658;DHT22;9458;50.942;5.074;2023-04-23T08:58:56;23.30;88.90
18658;DHT22;9458;50.942;5.074;2023-04-23T09:01:25;22.10;91.30
18658;DHT22;9458;50.942;5.074;2023-04-23T09:04:04;21.30;92.30
18658;DHT22;9458;50.942;5.074;2023-04-23T09:06:33;20.90;93.40
18658;DHT22;9458;50.942;5.074;2023-04-23T09:09:02;21.20;94.30
18658;DHT22;9458;50.942;5.074;2023-04-23T09:11:32;21.70;93.80
18658;DHT22;9458;50.942;5.074;2023-04-23T09:14:03;21.80;93.70
18658;DHT22;9458;50.942;5.074;2023-04-23T09:16:31;22.60;92.60
18658;DHT22;9458;50.942;5.074;2023-04-23T09:18:59;22.50;93.70
18658;DHT22;9458;50.942;5.074;2023-04-23T09:21:28;22.60;91.90
18658;DHT22;9458;50.942;5.074;2023-04-23T09:23:56;21.80;93.10
18658;DHT22;9458;50.942;5.074;2023-04-23T09:26:23;21.60;94.10
18658;DHT22;9458;50.942;5.074;2023-04-23T09:28:52;21.80;93.90
18658;DHT22;9458;50.942;5.074;2023-04-23T09:31:20;22.10;93.80
18658;DHT22;9458;50.942;5.074;2023-04-23T09:33:50;22.30;93.60
18658;DHT22;9458;50.942;5.074;2023-04-23T09:36:20;22.20;93.50
18658;DHT22;9458;50.942;5.074;2023-04-23T09:38:55;21.60;93.60
18658;DHT22;9458;50.942;5.074;2023-04-23T09:41:24;21.10;94.30
18658;DHT22;9458;50.942;5.074;2023-04-23T09:43:53;22.40;94.40
18658;DHT22;9458;50.942;5.074;2023-04-23T09:46:34;24.80;92.50
18658;DHT22;9458;50.942;5.074;2023-04-23T09:49:05;26.90;90.30
18658;DHT22;9458;50.942;5.074;2023-04-23T09:51:36;28.00;85.80
18658;DHT22;9458;50.942;5.074;2023-04-23T09:54:14;29.70;83.70
18658;DHT22;9458;50.942;5.074;2023-04-23T09:56:44;29.40;79.90
18658;DHT22;9458;50.942;5.074;2023-04-23T09:59:20;27.00;80.70
18658;DHT22;9458;50.942;5.074;2023-04-23T10:01:47;24.10;89.70
18658;DHT22;9458;50.942;5.074;2023-04-23T10:04:24;22.30;91.50
18658;DHT22;9458;50.942;5.074;2023-04-23T10:07:03;21.30;92.40
18658;DHT22;9458;50.942;5.074;2023-04-23T10:09:46;21.30;93.80
18658;DHT22;9458;50.942;5.074;2023-04-23T10:12:17;21.20;93.90
18658;DHT22;9458;50.942;5.074;2023-04-23T10:14:50;21.30;95.00
18658;DHT22;9458;50.942;5.074;2023-04-23T10:17:24;21.20;94.10
18658;DHT22;9458;50.942;5.074;2023-04-23T10:19:53;20.50;94.80
18658;DHT22;9458;50.942;5.074;2023-04-23T10:22:22;20.00;95.20
18658;DHT22;9458;50.942;5.074;2023-04-23T10:24:52;19.80;95.70
18658;DHT22;9458;50.942;5.074;2023-04-23T10:27:26;20.00;95.10
18658;DHT22;9458;50.942;5.074;2023-04-23T10:29:56;19.80;95.70
18658;DHT22;9458;50.942;5.074;2023-04-23T10:32:24;19.80;95.90
18658;DHT22;9458;50.942;5.074;2023-04-23T10:34:53;19.80;96.40
18658;DHT22;9458;50.942;5.074;2023-04-23T10:37:21;20.00;96.30
18658;DHT22;9458;50.942;5.074;2023-04-23T10:39:52;19.80;96.90
18658;DHT22;9458;50.942;5.074;2023-04-23T10:42:22;19.90;95.60
18658;DHT22;9458;50.942;5.074;2023-04-23T10:44:55;20.20;96.60
18658;DHT22;9458;50.942;5.074;2023-04-23T10:47:22;19.90;96.20
18658;DHT22;9458;50.942;5.074;2023-04-23T10:49:50;19.60;97.40
18658;DHT22;9458;50.942;5.074;2023-04-23T10:52:18;19.80;97.40
18658;DHT22;9458;50.942;5.074;2023-04-23T10:54:48;20.00;96.60
18658;DHT22;9458;50.942;5.074;2023-04-23T10:57:16;19.80;96.20
18658;DHT22;9458;50.942;5.074;2023-04-23T10:59:52;19.60;96.20
18658;DHT22;9458;50.942;5.074;2023-04-23T11:02:23;19.90;96.70
18658;DHT22;9458;50.942;5.074;2023-04-23T11:04:54;19.70;96.50
18658;DHT22;9458;50.942;5.074;2023-04-23T11:07:36;19.40;96.70
18658;DHT22;9458;50.942;5.074;2023-04-23T11:10:11;19.40;97.10
18658;DHT22;9458;50.942;5.074;2023-04-23T11:15:23;20.20;96.90
18658;DHT22;9458;50.942;5.074;2023-04-23T11:17:58;20.40;95.60
18658;DHT22;9458;50.942;5.074;2023-04-23T11:20:27;20.30;96.50
18658;DHT22;9458;50.942;5.074;2023-04-23T11:22:58;20.40;96.20
18658;DHT22;9458;50.942;5.074;2023-04-23T11:25:29;20.20;97.00
18658;DHT22;9458;50.942;5.074;2023-04-23T11:27:58;20.00;96.30
18658;DHT22;9458;50.942;5.074;2023-04-23T11:30:29;20.40;96.30
18658;DHT22;9458;50.942;5.074;2023-04-23T11:32:58;20.30;94.70
18658;DHT22;9458;50.942;5.074;2023-04-23T11:35:26;20.10;95.60
18658;DHT22;9458;50.942;5.074;2023-04-23T11:37:57;20.10;94.10
18658;DHT22;9458;50.942;5.074;2023-04-23T11:40:24;19.90;94.70
18658;DHT22;9458;50.942;5.074;2023-04-23T11:43:10;19.70;94.20
18658;DHT22;9458;50.942;5.074;2023-04-23T11:46:36;19.40;94.60
18658;DHT22;9458;50.942;5.074;2023-04-23T11:49:32;19.30;95.90
18658;DHT22;9458;50.942;5.074;2023-04-23T11:51:59;19.00;96.30
18658;DHT22;9458;50.942;5.074;2023-04-23T11:54:29;19.30;96.10
18658;DHT22;9458;50.942;5.074;2023-04-23T11:56:58;19.50;96.20
18658;DHT22;9458;50.942;5.074;2023-04-23T11:59:31;19.70;95.50
18658;DHT22;9458;50.942;5.074;2023-04-23T12:02:01;19.40;95.10
18658;DHT22;9458;50.942;5.074;2023-04-23T12:04:30;19.20;95.40
18658;DHT22;9458;50.942;5.074;2023-04-23T12:07:00;19.00;96.40
18658;DHT22;9458;50.942;5.074;2023-04-23T12:09:29;19.10;96.30
18658;DHT22;9458;50.942;5.074;2023-04-23T12:11:57;19.10;95.90
18658;DHT22;9458;50.942;5.074;2023-04-23T12:14:28;18.90;96.30
18658;DHT22;9458;50.942;5.074;2023-04-23T12:17:09;19.10;96.30
18658;DHT22;9458;50.942;5.074;2023-04-23T12:19:42;19.30;96.00
18658;DHT22;9458;50.942;5.074;2023-04-23T12:22:25;19.60;96.80
18658;DHT22;9458;50.942;5.074;2023-04-23T12:24:56;19.80;96.50
18658;DHT22;9458;50.942;5.074;2023-04-23T12:27:24;19.90;96.50
18658;DHT22;9458;50.942;5.074;2023-04-23T12:29:58;20.30;95.30
18658;DHT22;9458;50.942;5.074;2023-04-23T12:32:28;20.40;95.10
18658;DHT22;9458;50.942;5.074;2023-04-23T12:34:55;20.10;95.10
18658;DHT22;9458;50.942;5.074;2023-04-23T12:37:24;19.80;95.20
18658;DHT22;9458;50.942;5.074;2023-04-23T12:39:52;19.30;95.00
18658;DHT22;9458;50.942;5.074;2023-04-23T12:42:21;19.30;95.70
18658;DHT22;9458;50.942;5.074;2023-04-23T12:44:48;19.10;96.00
18658;DHT22;9458;50.942;5.074;2023-04-23T12:47:17;19.10;97.20
18658;DHT22;9458;50.942;5.074;2023-04-23T12:49:48;18.90;97.70
18658;DHT22;9458;50.942;5.074;2023-04-23T12:52:18;18.60;97.50
18658;DHT22;9458;50.942;5.074;2023-04-23T12:54:46;18.40;98.50
18658;DHT22;9458;50.942;5.074;2023-04-23T12:57:17;18.00;99.90
18658;DHT22;9458;50.942;5.074;2023-04-23T12:59:47;17.60;99.90
18658;DHT22;9458;50.942;5.074;2023-04-23T13:02:15;17.20;99.90
18658;DHT22;9458;50.942;5.074;2023-04-23T13:04:43;17.10;99.90
18658;DHT22;9458;50.942;5.074;2023-04-23T13:07:20;16.90;99.90
18658;DHT22;9458;50.942;5.074;2023-04-23T13:09:54;16.80;99.90
18658;DHT22;9458;50.942;5.074;2023-04-23T13:12:24;16.70;99.90
18658;DHT22;9458;50.942;5.074;2023-04-23T13:14:59;16.70;99.90
18658;DHT22;9458;50.942;5.074;2023-04-23T13:17:27;16.60;99.90
18658;DHT22;9458;50.942;5.074;2023-04-23T13:19:55;16.50;99.90
18658;DHT22;9458;50.942;5.074;2023-04-23T13:22:25;16.30;99.90
18658;DHT22;9458;50.942;5.074;2023-04-23T13:24:54;16.40;99.90
18658;DHT22;9458;50.942;5.074;2023-04-23T13:27:32;16.00;99.90
18658;DHT22;9458;50.942;5.074;2023-04-23T13:30:05;15.70;99.90
18658;DHT22;9458;50.942;5.074;2023-04-23T13:32:32;15.50;99.90
18658;DHT22;9458;50.942;5.074;2023-04-23T13:35:00;15.40;99.90
18658;DHT22;9458;50.942;5.074;2023-04-23T13:37:37;15.50;99.90
18658;DHT22;9458;50.942;5.074;2023-04-23T13:40:06;15.50;99.90
18658;DHT22;9458;50.942;5.074;2023-04-23T13:42:35;15.70;99.90
18658;DHT22;9458;50.942;5.074;2023-04-23T13:45:22;15.80;99.90
18658;DHT22;9458;50.942;5.074;2023-04-23T13:47:50;15.70;99.90
18658;DHT22;9458;50.942;5.074;2023-04-23T13:50:17;15.60;99.90
18658;DHT22;9458;50.942;5.074;2023-04-23T13:52:47;15.50;99.90
18658;DHT22;9458;50.942;5.074;2023-04-23T13:55:15;15.50;99.90
18658;DHT22;9458;50.942;5.074;2023-04-23T13:57:43;15.50;99.90
18658;DHT22;9458;50.942;5.074;2023-04-23T14:00:11;15.60;99.90
18658;DHT22;9458;50.942;5.074;2023-04-23T14:02:49;15.50;99.90
18658;DHT22;9458;50.942;5.074;2023-04-23T14:05:17;15.50;99.90
18658;DHT22;9458;50.942;5.074;2023-04-23T14:07:56;15.60;99.90
18658;DHT22;9458;50.942;5.074;2023-04-23T14:10:24;15.60;99.90
18658;DHT22;9458;50.942;5.074;2023-04-23T14:12:51;15.50;99.90
18658;DHT22;9458;50.942;5.074;2023-04-23T14:15:20;15.60;99.90
18658;DHT22;9458;50.942;5.074;2023-04-23T14:17:47;15.50;99.90
18658;DHT22;9458;50.942;5.074;2023-04-23T14:20:15;15.60;99.90
18658;DHT22;9458;50.942;5.074;2023-04-23T14:22:48;15.60;99.90
18658;DHT22;9458;50.942;5.074;2023-04-23T14:25:29;15.50;99.90
18658;DHT22;9458;50.942;5.074;2023-04-23T14:30:47;15.60;99.90
18658;DHT22;9458;50.942;5.074;2023-04-23T14:33:14;15.40;99.90
18658;DHT22;9458;50.942;5.074;2023-04-23T14:35:42;15.40;99.90
18658;DHT22;9458;50.942;5.074;2023-04-23T14:38:10;15.30;99.90
18658;DHT22;9458;50.942;5.074;2023-04-23T14:40:40;15.30;99.90
18658;DHT22;9458;50.942;5.074;2023-04-23T14:43:08;15.10;99.90
18658;DHT22;9458;50.942;5.074;2023-04-23T14:45:38;15.20;99.90
18658;DHT22;9458;50.942;5.074;2023-04-23T14:48:06;15.20;99.90
18658;DHT22;9458;50.942;5.074;2023-04-23T14:50:35;15.10;99.90
18658;DHT22;9458;50.942;5.074;2023-04-23T14:53:03;15.20;99.90
18658;DHT22;9458;50.942;5.074;2023-04-23T14:55:33;15.30;99.90
18658;DHT22;9458;50.942;5.074;2023-04-23T14:58:01;15.40;99.90
18658;DHT22;9458;50.942;5.074;2023-04-23T15:00:29;15.40;99.90
18658;DHT22;9458;50.942;5.074;2023-04-23T15:02:58;15.60;99.90
18658;DHT22;9458;50.942;5.074;2023-04-23T15:05:27;15.70;99.90
18658;DHT22;9458;50.942;5.074;2023-04-23T15:07:55;15.90;99.90
18658;DHT22;9458;50.942;5.074;2023-04-23T15:10:24;16.00;99.90
18658;DHT22;9458;50.942;5.074;2023-04-23T15:13:02;15.80;99.90
18658;DHT22;9458;50.942;5.074;2023-04-23T15:15:42;15.40;99.90
18658;DHT22;9458;50.942;5.074;2023-04-23T15:18:12;15.50;99.90
18658;DHT22;9458;50.942;5.074;2023-04-23T15:20:41;15.50;99.90
18658;DHT22;9458;50.942;5.074;2023-04-23T15:23:08;15.70;99.90
18658;DHT22;9458;50.942;5.074;2023-04-23T15:25:37;15.90;99.90
18658;DHT22;9458;50.942;5.074;2023-04-23T15:28:07;15.90;99.90
18658;DHT22;9458;50.942;5.074;2023-04-23T15:30:35;16.00;99.90
18658;DHT22;9458;50.942;5.074;2023-04-23T15:33:04;16.10;99.90
18658;DHT22;9458;50.942;5.074;2023-04-23T15:35:32;16.00;99.90
18658;DHT22;9458;50.942;5.074;2023-04-23T15:38:00;16.00;99.90
18658;DHT22;9458;50.942;5.074;2023-04-23T15:40:28;16.00;99.90
18658;DHT22;9458;50.942;5.074;2023-04-23T15:42:56;15.90;99.90
18658;DHT22;9458;50.942;5.074;2023-04-23T15:45:26;16.00;99.90
18658;DHT22;9458;50.942;5.074;2023-04-23T15:47:55;16.00;99.90
18658;DHT22;9458;50.942;5.074;2023-04-23T15:50:22;16.00;99.90
18658;DHT22;9458;50.942;5.074;2023-04-23T15:52:52;16.00;99.90
18658;DHT22;9458;50.942;5.074;2023-04-23T15:55:23;16.10;99.90
18658;DHT22;9458;50.942;5.074;2023-04-23T15:57:50;16.10;99.90
18658;DHT22;9458;50.942;5.074;2023-04-23T16:00:19;16.10;99.90
18658;DHT22;9458;50.942;5.074;2023-04-23T16:02:49;16.10;99.90
18658;DHT22;9458;50.942;5.074;2023-04-23T16:05:18;16.00;99.90
18658;DHT22;9458;50.942;5.074;2023-04-23T16:07:45;16.00;99.90
18658;DHT22;9458;50.942;5.074;2023-04-23T16:10:13;15.90;99.90
18658;DHT22;9458;50.942;5.074;2023-04-23T16:12:40;15.70;99.90
18658;DHT22;9458;50.942;5.074;2023-04-23T16:15:11;15.70;99.90